createdAt,value
2016-03-22T00:00:13.908Z,52.1
2016-03-22T00:01:13.926Z,52.2
2016-03-22T00:02:13.928Z,52.1
2016-03-22T00:03:13.948Z,52.39
2016-03-22T00:04:13.965Z,52.01
2016-03-22T00:05:13.967Z,51.62
2016-03-22T00:06:13.987Z,52.39
2016-03-22T00:07:14.005Z,51.53
2016-03-22T00:08:14.022Z,52.2
2016-03-22T00:09:14.025Z,52.01
2016-03-22T00:10:14.075Z,51.62
2016-03-22T00:11:14.047Z,51.72
2016-03-22T00:12:14.066Z,52.1
2016-03-22T00:13:14.083Z,52.01
2016-03-22T00:14:14.101Z,51.89
2016-03-22T00:15:14.120Z,52.1
2016-03-22T00:16:14.107Z,51.98
2016-03-22T00:17:13.968Z,52.39
2016-03-22T00:18:14.144Z,52.48
2016-03-22T00:19:14.146Z,52.48
2016-03-22T00:20:14.165Z,52.01
2016-03-22T00:21:14.168Z,52.29
2016-03-22T00:22:14.201Z,51.53
2016-03-22T00:23:14.204Z,52.1
2016-03-22T00:24:14.098Z,51.82
2016-03-22T00:25:14.225Z,51.62
2016-03-22T00:26:14.243Z,52.2
2016-03-22T00:27:14.293Z,52.39
2016-03-22T00:28:14.264Z,53.03
2016-03-22T00:29:14.282Z,52.93
2016-03-22T00:30:14.284Z,53.05
2016-03-22T00:31:14.303Z,52.74
2016-03-22T00:32:14.524Z,53.12
2016-03-22T00:33:14.324Z,53.41
2016-03-22T00:34:14.358Z,53.41
2016-03-22T00:35:14.360Z,53.03
2016-03-22T00:36:14.394Z,53.03
2016-03-22T00:37:14.381Z,53.5
2016-03-22T00:38:14.385Z,53.59
2016-03-22T00:39:14.433Z,53.59
2016-03-22T00:40:14.421Z,54.36
2016-03-22T00:41:14.423Z,53.78
2016-03-22T00:42:14.441Z,53.22
2016-03-22T00:43:14.476Z,53.59
2016-03-22T00:44:14.462Z,53.69
2016-03-22T00:45:14.481Z,54.36
2016-03-22T00:46:14.484Z,53.97
2016-03-22T00:47:14.518Z,54.26
2016-03-22T00:48:14.520Z,53.69
2016-03-22T00:49:14.523Z,54.26
2016-03-22T00:50:14.557Z,53.97
2016-03-22T00:51:14.559Z,53.97
2016-03-22T00:52:14.562Z,53.69
2016-03-22T00:53:14.580Z,54.07
2016-03-22T00:54:14.506Z,54.17
2016-03-22T00:55:14.601Z,53.78
2016-03-22T00:56:14.620Z,53.5
2016-03-22T00:57:14.622Z,54.07
2016-03-22T00:58:14.656Z,53.69
2016-03-22T00:59:14.658Z,53.78
2016-03-22T01:00:14.678Z,53.88
2016-03-22T01:01:14.680Z,54.07
2016-03-22T01:02:14.698Z,53.69
2016-03-22T01:03:14.702Z,53.5
2016-03-22T01:04:14.750Z,53.97
2016-03-22T01:05:14.738Z,53.97
2016-03-22T01:06:14.741Z,53.88
2016-03-22T01:07:14.758Z,54.07
2016-03-22T01:08:14.777Z,54.26
2016-03-22T01:09:14.843Z,54.45
2016-03-22T01:10:14.798Z,53.59
2016-03-22T01:11:14.801Z,53.59
2016-03-22T01:12:14.819Z,53.78
2016-03-22T01:13:14.837Z,54.26
2016-03-22T01:14:14.841Z,53.97
2016-03-22T01:15:14.859Z,53.78
2016-03-22T01:16:14.877Z,53.69
2016-03-22T01:17:14.879Z,54.07
2016-03-22T01:18:14.898Z,53.97
2016-03-22T01:19:14.947Z,54.17
2016-03-22T01:20:14.918Z,54.07
2016-03-22T01:21:14.937Z,53.78
2016-03-22T01:22:14.939Z,53.78
2016-03-22T01:23:14.959Z,53.59
2016-03-22T01:24:14.976Z,53.69
2016-03-22T01:25:14.978Z,53.59
2016-03-22T01:26:15.014Z,54.07
2016-03-22T01:27:15.000Z,54.07
2016-03-22T01:28:15.019Z,53.88
2016-03-22T01:29:15.052Z,54.17
2016-03-22T01:30:15.055Z,54.26
2016-03-22T01:31:15.058Z,54.45
2016-03-22T01:32:15.076Z,54.74
2016-03-22T01:33:15.094Z,54.45
2016-03-22T01:34:15.097Z,53.88
2016-03-22T01:35:15.116Z,54.36
2016-03-22T01:36:15.118Z,54.64
2016-03-22T01:37:15.136Z,54.55
2016-03-22T01:38:15.138Z,54.26
2016-03-22T01:39:15.267Z,54.93
2016-03-22T01:40:15.191Z,55.02
2016-03-22T01:41:15.179Z,54.83
2016-03-22T01:42:15.196Z,55.02
2016-03-22T01:43:15.215Z,55.21
2016-03-22T01:44:15.218Z,54.74
2016-03-22T01:45:15.235Z,55.11
2016-03-22T01:46:15.238Z,55.57
2016-03-22T01:47:15.287Z,54.99
2016-03-22T01:48:15.291Z,54.9
2016-03-22T01:49:15.278Z,55.09
2016-03-22T01:50:15.296Z,55.18
2016-03-22T01:51:15.299Z,55.28
2016-03-22T01:52:15.317Z,55.69
2016-03-22T01:53:15.336Z,55.57
2016-03-22T01:54:15.354Z,54.9
2016-03-22T01:55:15.372Z,55.37
2016-03-22T01:56:15.375Z,54.9
2016-03-22T01:57:15.374Z,55.85
2016-03-22T01:58:15.363Z,55.47
2016-03-22T01:59:15.400Z,55.37
2016-03-22T02:00:15.373Z,55.47
2016-03-22T02:01:15.378Z,55.37
2016-03-22T02:02:15.370Z,55.37
2016-03-22T02:03:15.382Z,55.47
2016-03-22T02:04:15.396Z,55.66
2016-03-22T02:05:15.394Z,56.13
2016-03-22T02:06:15.407Z,55.57
2016-03-22T02:07:15.421Z,55.76
2016-03-22T02:08:15.439Z,55.85
2016-03-22T02:09:15.454Z,55.57
2016-03-22T02:10:15.440Z,55.57
2016-03-22T02:11:15.457Z,55.47
2016-03-22T02:12:15.474Z,55.18
2016-03-22T02:13:15.475Z,55.47
2016-03-22T02:14:15.477Z,55.66
2016-03-22T02:15:15.496Z,55.85
2016-03-22T02:16:15.528Z,55.09
2016-03-22T02:17:15.531Z,55.66
2016-03-22T02:18:15.534Z,56.61
2016-03-22T02:19:15.552Z,56.23
2016-03-22T02:20:15.555Z,55.66
2016-03-22T02:21:15.573Z,55.85
2016-03-22T02:22:15.606Z,55.57
2016-03-22T02:23:15.594Z,55.85
2016-03-22T02:24:15.612Z,55.76
2016-03-22T02:25:15.614Z,56.32
2016-03-22T02:26:15.633Z,56.7
2016-03-22T02:27:15.636Z,56.04
2016-03-22T02:28:15.654Z,56.51
2016-03-22T02:29:15.672Z,55.85
2016-03-22T02:30:15.680Z,56.04
2016-03-22T02:31:15.698Z,56.7
2016-03-22T02:32:15.701Z,55.76
2016-03-22T02:33:15.719Z,55.85
2016-03-22T02:34:15.737Z,56.23
2016-03-22T02:35:15.741Z,56.13
2016-03-22T02:36:15.759Z,55.66
2016-03-22T02:37:15.776Z,56.13
2016-03-22T02:38:15.779Z,56.42
2016-03-22T02:39:15.798Z,56.42
2016-03-22T02:40:15.800Z,56.23
2016-03-22T02:41:15.820Z,56.13
2016-03-22T02:42:15.822Z,55.47
2016-03-22T02:43:15.839Z,55.85
2016-03-22T02:44:15.953Z,55.76
2016-03-22T02:45:15.861Z,56.51
2016-03-22T02:46:15.863Z,56.61
2016-03-22T02:47:15.881Z,56.32
2016-03-22T02:48:15.900Z,56.04
2016-03-22T02:49:15.903Z,55.47
2016-03-22T02:50:15.937Z,55.85
2016-03-22T02:51:15.939Z,55.94
2016-03-22T02:52:15.942Z,56.04
2016-03-22T02:53:16.008Z,55.57
2016-03-22T02:54:15.963Z,56.32
2016-03-22T02:55:15.982Z,56.89
2016-03-22T02:56:15.985Z,56.8
2016-03-22T02:57:16.003Z,56.51
2016-03-22T02:58:16.021Z,56.32
2016-03-22T02:59:16.024Z,56.42
2016-03-22T03:00:16.041Z,56.89
2016-03-22T03:01:16.060Z,56.61
2016-03-22T03:02:16.063Z,56.32
2016-03-22T03:03:16.081Z,56.51
2016-03-22T03:04:16.084Z,56.42
2016-03-22T03:05:16.102Z,56.61
2016-03-22T03:06:16.121Z,56.7
2016-03-22T03:07:16.123Z,56.32
2016-03-22T03:08:16.157Z,56.89
2016-03-22T03:09:16.145Z,57.18
2016-03-22T03:10:16.162Z,57.37
2016-03-22T03:11:16.181Z,57.09
2016-03-22T03:12:16.184Z,56.89
2016-03-22T03:13:16.217Z,56.89
2016-03-22T03:14:16.220Z,57.18
2016-03-22T03:15:16.239Z,56.89
2016-03-22T03:16:16.241Z,56.8
2016-03-22T03:17:16.245Z,57.37
2016-03-22T03:18:16.262Z,56.89
2016-03-22T03:19:16.280Z,57.28
2016-03-22T03:20:16.300Z,57.94
2016-03-22T03:21:16.302Z,56.99
2016-03-22T03:22:16.304Z,56.89
2016-03-22T03:23:16.322Z,56.89
2016-03-22T03:24:16.325Z,56.89
2016-03-22T03:25:16.343Z,56.99
2016-03-22T03:26:16.362Z,57.09
2016-03-22T03:27:16.364Z,57.09
2016-03-22T03:28:16.382Z,57.18
2016-03-22T03:29:16.386Z,57.28
2016-03-22T03:30:16.419Z,57.09
2016-03-22T03:31:16.422Z,57.09
2016-03-22T03:32:16.440Z,56.89
2016-03-22T03:33:16.443Z,57.56
2016-03-22T03:34:16.477Z,57.37
2016-03-22T03:35:16.496Z,57.65
2016-03-22T03:36:16.467Z,56.99
2016-03-22T03:37:16.501Z,57.18
2016-03-22T03:38:16.504Z,57.09
2016-03-22T03:39:16.507Z,57.09
2016-03-22T03:40:16.524Z,57.28
2016-03-22T03:41:16.542Z,57.94
2016-03-22T03:42:16.562Z,57.28
2016-03-22T03:43:16.564Z,56.99
2016-03-22T03:44:16.582Z,56.99
2016-03-22T03:45:16.584Z,57.18
2016-03-22T03:46:16.603Z,57.46
2016-03-22T03:47:16.606Z,57.28
2016-03-22T03:48:16.625Z,57.18
2016-03-22T03:49:16.627Z,57.75
2016-03-22T03:50:16.644Z,57.28
2016-03-22T03:51:16.679Z,57.46
2016-03-22T03:52:16.666Z,57.56
2016-03-22T03:53:16.700Z,57.84
2016-03-22T03:54:16.687Z,57.94
2016-03-22T03:55:16.705Z,57.75
2016-03-22T03:56:16.708Z,58.22
2016-03-22T03:57:16.727Z,58.03
2016-03-22T03:58:16.744Z,57.94
2016-03-22T03:59:16.747Z,58.03
2016-03-22T04:00:16.766Z,58.03
2016-03-22T04:01:16.768Z,58.13
2016-03-22T04:02:16.787Z,58.89
2016-03-22T04:03:16.836Z,58.8
2016-03-22T04:04:16.807Z,58.13
2016-03-22T04:05:16.826Z,58.13
2016-03-22T04:06:16.844Z,58.32
2016-03-22T04:07:16.847Z,58.03
2016-03-22T04:08:16.865Z,58.13
2016-03-22T04:09:16.884Z,57.94
2016-03-22T04:10:16.901Z,57.94
2016-03-22T04:11:16.889Z,58.03
2016-03-22T04:12:16.907Z,58.03
2016-03-22T04:13:16.926Z,57.75
2016-03-22T04:14:16.928Z,57.75
2016-03-22T04:15:16.947Z,58.22
2016-03-22T04:16:16.965Z,58.03
2016-03-22T04:17:16.967Z,58.51
2016-03-22T04:18:16.986Z,58.32
2016-03-22T04:19:16.989Z,58.41
2016-03-22T04:20:17.006Z,58.61
2016-03-22T04:21:17.026Z,58.41
2016-03-22T04:22:17.028Z,57.84
2016-03-22T04:23:17.046Z,58.03
2016-03-22T04:24:17.050Z,58.13
2016-03-22T04:25:17.067Z,58.1
2016-03-22T04:26:17.086Z,58.76
2016-03-22T04:27:17.088Z,58.39
2016-03-22T04:28:17.091Z,58.86
2016-03-22T04:29:17.110Z,59.24
2016-03-22T04:30:17.113Z,59.05
2016-03-22T04:31:17.161Z,59.24
2016-03-22T04:32:17.148Z,59.43
2016-03-22T04:33:17.152Z,59.52
2016-03-22T04:34:17.185Z,59.33
2016-03-22T04:35:17.188Z,60.1
2016-03-22T04:36:17.190Z,59.71
2016-03-22T04:37:17.209Z,59.33
2016-03-22T04:38:17.227Z,60
2016-03-22T04:39:17.230Z,59.91
2016-03-22T04:40:17.249Z,59.62
2016-03-22T04:41:17.251Z,59.91
2016-03-22T04:42:17.269Z,59.05
2016-03-22T04:43:17.273Z,59.05
2016-03-22T04:44:17.290Z,59.05
2016-03-22T04:45:17.292Z,59.05
2016-03-22T04:46:17.327Z,58.86
2016-03-22T04:47:17.314Z,58.67
2016-03-22T04:48:17.332Z,59.05
2016-03-22T04:49:17.351Z,59.43
2016-03-22T04:50:17.353Z,59.14
2016-03-22T04:51:17.372Z,59.33
2016-03-22T04:52:17.375Z,58.58
2016-03-22T04:53:17.392Z,58
2016-03-22T04:54:17.395Z,58.48
2016-03-22T04:55:17.413Z,58.7
2016-03-22T04:56:17.417Z,58.67
2016-03-22T04:57:17.435Z,58.8
2016-03-22T04:58:17.453Z,58.95
2016-03-22T04:59:17.455Z,58.76
2016-03-22T05:00:17.474Z,59.17
2016-03-22T05:01:17.492Z,58.95
2016-03-22T05:02:17.494Z,58.86
2016-03-22T05:03:17.513Z,58.29
2016-03-22T05:04:17.531Z,58.39
2016-03-22T05:05:17.535Z,58.22
2016-03-22T05:06:17.537Z,58.58
2016-03-22T05:07:17.587Z,58.51
2016-03-22T05:08:17.574Z,58.58
2016-03-22T05:09:17.576Z,58.7
2016-03-22T05:10:17.595Z,58.8
2016-03-22T05:11:17.613Z,58.8
2016-03-22T05:12:17.615Z,58.98
2016-03-22T05:13:17.618Z,58.32
2016-03-22T05:14:17.652Z,58.13
2016-03-22T05:15:17.654Z,58.32
2016-03-22T05:16:17.658Z,58.89
2016-03-22T05:17:17.676Z,58.8
2016-03-22T05:18:17.679Z,58.51
2016-03-22T05:19:17.697Z,58.61
2016-03-22T05:20:17.700Z,58.7
2016-03-22T05:21:17.718Z,58.89
2016-03-22T05:22:17.736Z,59.27
2016-03-22T05:23:17.739Z,58.7
2016-03-22T05:24:17.757Z,59.08
2016-03-22T05:25:17.791Z,58.41
2016-03-22T05:26:17.794Z,58.7
2016-03-22T05:27:17.797Z,58.89
2016-03-22T05:28:17.815Z,58.89
2016-03-22T05:29:17.817Z,59.08
2016-03-22T05:30:17.820Z,58.8
2016-03-22T05:31:17.838Z,58.41
2016-03-22T05:32:17.841Z,58.7
2016-03-22T05:33:17.860Z,58.8
2016-03-22T05:34:17.877Z,58.32
2016-03-22T05:35:17.913Z,58.98
2016-03-22T05:36:17.899Z,58.89
2016-03-22T05:37:19.275Z,58.8
2016-03-22T05:38:17.758Z,58.8
2016-03-22T05:39:17.964Z,58.89
2016-03-22T05:40:22.147Z,58.8
2016-03-22T05:41:17.947Z,58.98
2016-03-22T05:42:17.966Z,58.51
2016-03-22T05:43:17.969Z,58.32
2016-03-22T05:44:17.971Z,58.41
2016-03-22T05:45:17.989Z,58.13
2016-03-22T05:46:17.992Z,57.84
2016-03-22T05:47:18.010Z,58.41
2016-03-22T05:48:18.013Z,58.22
2016-03-22T05:49:18.032Z,57.75
2016-03-22T05:50:18.034Z,58.51
2016-03-22T05:51:18.053Z,58.61
2016-03-22T05:52:18.071Z,58.13
2016-03-22T05:53:18.074Z,58.51
2016-03-22T05:54:18.091Z,58.32
2016-03-22T05:55:18.173Z,58.32
2016-03-22T05:56:18.129Z,58.22
2016-03-22T05:57:18.131Z,57.84
2016-03-22T05:58:18.135Z,58.32
2016-03-22T05:59:18.152Z,58.03
2016-03-22T06:00:18.155Z,57.28
2016-03-22T06:01:18.173Z,57.94
2016-03-22T06:02:18.192Z,57.84
2016-03-22T06:03:18.210Z,57.28
2016-03-22T06:04:18.228Z,57.84
2016-03-22T06:05:18.231Z,57.94
2016-03-22T06:06:18.234Z,56.89
2016-03-22T06:07:18.236Z,57.18
2016-03-22T06:08:18.254Z,57.18
2016-03-22T06:09:18.273Z,56.99
2016-03-22T06:10:18.292Z,57.09
2016-03-22T06:11:18.309Z,57.09
2016-03-22T06:12:18.296Z,57.28
2016-03-22T06:13:18.315Z,57.09
2016-03-22T06:14:18.333Z,56.99
2016-03-22T06:15:18.336Z,57.09
2016-03-22T06:16:18.354Z,56.99
2016-03-22T06:17:18.372Z,57.09
2016-03-22T06:18:18.390Z,56.8
2016-03-22T06:19:18.393Z,56.8
2016-03-22T06:20:18.397Z,56.73
2016-03-22T06:21:18.414Z,55.94
2016-03-22T06:22:18.417Z,56.7
2016-03-22T06:23:18.451Z,56.45
2016-03-22T06:24:18.454Z,56.45
2016-03-22T06:25:18.488Z,55.78
2016-03-22T06:26:18.490Z,55.21
2016-03-22T06:27:18.477Z,55.78
2016-03-22T06:28:18.495Z,55.59
2016-03-22T06:29:18.515Z,55.5
2016-03-22T06:30:18.517Z,55.4
2016-03-22T06:31:18.535Z,55.59
2016-03-22T06:32:18.554Z,55.5
2016-03-22T06:33:18.556Z,55.69
2016-03-22T06:34:18.574Z,55.59
2016-03-22T06:35:18.592Z,55.88
2016-03-22T06:36:18.596Z,55.5
2016-03-22T06:37:18.614Z,55.69
2016-03-22T06:38:18.632Z,55.88
2016-03-22T06:39:18.634Z,55.5
2016-03-22T06:40:18.622Z,55.88
2016-03-22T06:41:18.672Z,55.21
2016-03-22T06:42:18.674Z,55.59
2016-03-22T06:43:18.678Z,55.69
2016-03-22T06:44:18.711Z,54.93
2016-03-22T06:45:18.698Z,54.83
2016-03-22T06:46:18.716Z,55.11
2016-03-22T06:47:18.750Z,54.64
2016-03-22T06:48:18.736Z,54.26
2016-03-22T06:49:18.771Z,54.26
2016-03-22T06:50:18.773Z,54.07
2016-03-22T06:51:18.776Z,53.59
2016-03-22T06:52:18.794Z,53.78
2016-03-22T06:53:18.813Z,54.55
2016-03-22T06:54:18.894Z,54.1
2016-03-22T06:55:18.880Z,53.91
2016-03-22T06:56:18.852Z,53.05
2016-03-22T06:57:18.854Z,53.72
2016-03-22T06:58:18.874Z,53.15
2016-03-22T06:59:18.891Z,53.05
2016-03-22T07:00:18.894Z,53.15
2016-03-22T07:01:18.928Z,52.67
2016-03-22T07:02:18.931Z,52.58
2016-03-22T07:03:18.996Z,52.48
2016-03-22T07:04:18.951Z,52.01
2016-03-22T07:05:18.955Z,52.2
2016-03-22T07:06:18.973Z,51.15
2016-03-22T07:07:18.992Z,51.72
2016-03-22T07:08:19.014Z,52.2
2016-03-22T07:09:19.033Z,52.01
2016-03-22T07:10:19.036Z,52.48
2016-03-22T07:11:19.053Z,52.39
2016-03-22T07:12:19.057Z,51.15
2016-03-22T07:13:19.075Z,50.96
2016-03-22T07:14:19.078Z,50.77
2016-03-22T07:15:19.127Z,50.68
2016-03-22T07:16:19.099Z,50.58
2016-03-22T07:17:19.117Z,50.89
2016-03-22T07:18:19.135Z,50.7
2016-03-22T07:19:19.169Z,50.42
2016-03-22T07:20:19.140Z,49.18
2016-03-22T07:21:19.174Z,49.56
2016-03-22T07:22:19.193Z,49.08
2016-03-22T07:23:19.210Z,48.99
2016-03-22T07:24:19.213Z,49.94
2016-03-22T07:25:19.263Z,49.46
2016-03-22T07:26:19.250Z,49.37
2016-03-22T07:27:19.253Z,49.08
2016-03-22T07:28:19.271Z,49.85
2016-03-22T07:29:19.274Z,48.82
2016-03-22T07:30:19.292Z,48.44
2016-03-22T07:31:19.295Z,47.87
2016-03-22T07:32:19.313Z,47.78
2016-03-22T07:33:19.331Z,47.68
2016-03-22T07:34:19.350Z,47.11
2016-03-22T07:35:19.368Z,47.02
2016-03-22T07:36:19.371Z,47.02
2016-03-22T07:37:19.420Z,46.83
2016-03-22T07:38:19.392Z,46.83
2016-03-22T07:39:19.411Z,46.09
2016-03-22T07:40:19.444Z,44.56
2016-03-22T07:41:19.447Z,45.89
2016-03-22T07:42:19.464Z,45.7
2016-03-22T07:43:19.484Z,44.85
2016-03-22T07:44:19.486Z,44.85
2016-03-22T07:45:19.505Z,43.51
2016-03-22T07:46:19.523Z,44.66
2016-03-22T07:47:19.525Z,44.27
2016-03-22T07:48:19.544Z,43.9
2016-03-22T07:49:19.562Z,43.73
2016-03-22T07:50:19.581Z,43.82
2016-03-22T07:51:19.583Z,42.58
2016-03-22T07:52:19.632Z,42.49
2016-03-22T07:53:19.635Z,42.58
2016-03-22T07:54:19.638Z,42.4
2016-03-22T07:55:19.531Z,42.4
2016-03-22T07:56:19.674Z,41.44
2016-03-22T07:57:19.677Z,41.27
2016-03-22T07:58:19.696Z,40.6
2016-03-22T07:59:19.714Z,40.12
2016-03-22T08:00:19.717Z,39.46
2016-03-22T08:01:19.735Z,39.29
2016-03-22T08:02:19.768Z,38.62
2016-03-22T08:03:19.771Z,37.76
2016-03-22T08:04:19.790Z,38.15
2016-03-22T08:05:19.808Z,38.24
2016-03-22T08:06:19.843Z,38.05
2016-03-22T08:07:19.845Z,38.91
2016-03-22T08:08:19.864Z,38.15
2016-03-22T08:09:19.866Z,38.71
2016-03-22T08:10:19.884Z,36.83
2016-03-22T08:11:19.918Z,35.87
2016-03-22T08:12:19.920Z,37.12
2016-03-22T08:13:19.939Z,35.59
2016-03-22T08:14:19.958Z,35.87
2016-03-22T08:15:19.975Z,36.75
2016-03-22T08:16:19.978Z,36.08
2016-03-22T08:17:19.997Z,34.75
2016-03-22T08:18:20.031Z,33.98
2016-03-22T08:19:20.033Z,34
2016-03-22T08:20:20.067Z,33.81
2016-03-22T08:21:20.069Z,33.14
2016-03-22T08:22:20.089Z,33.14
2016-03-22T08:23:20.107Z,32.37
2016-03-22T08:24:20.141Z,32.86
2016-03-22T08:25:20.143Z,32.58
2016-03-22T08:26:20.162Z,31.43
2016-03-22T08:27:20.180Z,31.15
2016-03-22T08:28:20.199Z,31.05
2016-03-22T08:29:20.217Z,30.59
2016-03-22T08:30:20.235Z,29.54
2016-03-22T08:31:20.237Z,28.12
2016-03-22T08:32:20.271Z,25.65
2016-03-22T08:33:20.290Z,24.6
2016-03-22T08:34:20.308Z,25.37
2016-03-22T08:35:20.326Z,26.23
2016-03-22T08:36:20.344Z,26.06
2016-03-22T08:37:20.363Z,24.62
2016-03-22T08:38:20.412Z,24.62
2016-03-22T08:39:20.415Z,24.34
2016-03-22T08:40:20.637Z,23.94
2016-03-22T08:41:20.452Z,23.38
2016-03-22T08:42:20.470Z,24.34
2016-03-22T08:43:20.489Z,24.05
2016-03-22T08:44:20.507Z,24.24
2016-03-22T08:45:20.541Z,24.63
2016-03-22T08:46:20.543Z,23.67
2016-03-22T08:47:20.562Z,23.96
2016-03-22T08:48:20.596Z,23
2016-03-22T08:49:20.614Z,23.38
2016-03-22T08:50:20.648Z,24.24
2016-03-22T08:51:20.697Z,25.21
2016-03-22T08:52:20.669Z,24.45
2016-03-22T08:53:20.702Z,23.68
2016-03-22T08:54:20.722Z,23.01
2016-03-22T08:55:20.740Z,23.88
2016-03-22T08:56:20.773Z,24.08
2016-03-22T08:57:20.792Z,24.08
2016-03-22T08:58:20.826Z,22.55
2016-03-22T08:59:20.860Z,21.21
2016-03-22T09:00:20.879Z,20.17
2016-03-22T09:01:20.882Z,19.97
2016-03-22T09:02:20.899Z,18.73
2016-03-22T09:03:20.917Z,18.82
2016-03-22T09:04:20.951Z,20.06
2016-03-22T09:05:20.970Z,19.48
2016-03-22T09:06:20.988Z,20.15
2016-03-22T09:07:21.003Z,21.02
2016-03-22T09:08:21.037Z,20.35
2016-03-22T09:09:21.056Z,21.11
2016-03-22T09:10:21.089Z,21.78
2016-03-22T09:11:21.108Z,20.83
2016-03-22T09:12:21.142Z,21.11
2016-03-22T09:13:21.161Z,20.55
2016-03-22T09:14:21.178Z,20.74
2016-03-22T09:15:21.197Z,18.83
2016-03-22T09:16:21.230Z,19.12
2016-03-22T09:17:21.249Z,19.98
2016-03-22T09:18:21.266Z,19.61
2016-03-22T09:19:21.302Z,19.03
2016-03-22T09:20:21.319Z,18.07
2016-03-22T09:21:21.353Z,16.63
2016-03-22T09:22:21.371Z,15.57
2016-03-22T09:23:21.390Z,17.21
2016-03-22T09:24:21.408Z,17.21
2016-03-22T09:25:21.442Z,17.31
2016-03-22T09:26:21.461Z,17.69
2016-03-22T09:27:21.495Z,16.45
2016-03-22T09:28:21.512Z,16.45
2016-03-22T09:29:21.546Z,16.25
2016-03-22T09:30:21.565Z,15.87
2016-03-22T09:31:21.584Z,16.92
2016-03-22T09:32:21.601Z,16.44
2016-03-22T09:33:21.620Z,17.19
2016-03-22T09:34:21.654Z,16.42
2016-03-22T09:35:21.687Z,16.62
2016-03-22T09:36:21.707Z,16.9
2016-03-22T09:37:21.756Z,16.99
2016-03-22T09:38:21.758Z,17.57
2016-03-22T09:39:21.761Z,18.04
2016-03-22T09:40:21.795Z,17.94
2016-03-22T09:41:21.814Z,18.91
2016-03-22T09:42:21.831Z,18.43
2016-03-22T09:43:21.866Z,18.52
2016-03-22T09:44:21.899Z,16.7
2016-03-22T09:45:21.919Z,16.99
2016-03-22T09:46:21.936Z,16.98
2016-03-22T09:47:21.955Z,16.88
2016-03-22T09:48:21.972Z,16.02
2016-03-22T09:49:21.991Z,15.92
2016-03-22T09:50:22.025Z,15.92
2016-03-22T09:51:22.043Z,16.49
2016-03-22T09:52:22.062Z,16.97
2016-03-22T09:53:22.096Z,16.88
2016-03-22T09:54:22.098Z,17.73
2016-03-22T09:55:22.133Z,17.82
2016-03-22T09:56:22.151Z,18.21
2016-03-22T09:57:22.185Z,18.88
2016-03-22T09:58:22.187Z,19.54
2016-03-22T09:59:22.252Z,19.45
2016-03-22T10:00:22.240Z,20.02
2016-03-22T10:01:22.257Z,20.87
2016-03-22T10:02:22.276Z,20.78
2016-03-22T10:03:22.295Z,20.78
2016-03-22T10:04:22.328Z,21.64
2016-03-22T10:05:22.332Z,21.64
2016-03-22T10:06:22.365Z,22.31
2016-03-22T10:07:22.383Z,21.72
2016-03-22T10:08:22.434Z,22.11
2016-03-22T10:09:22.436Z,22.68
2016-03-22T10:10:22.454Z,22.49
2016-03-22T10:11:22.456Z,22.49
2016-03-22T10:12:22.491Z,21.81
2016-03-22T10:13:22.509Z,22.19
2016-03-22T10:14:22.543Z,22.09
2016-03-22T10:15:22.561Z,22.19
2016-03-22T10:16:22.580Z,22.47
2016-03-22T10:17:22.582Z,23.82
2016-03-22T10:18:22.600Z,24.19
2016-03-22T10:19:22.619Z,23.43
2016-03-22T10:20:22.637Z,23.8
2016-03-22T10:21:22.671Z,23.04
2016-03-22T10:22:22.689Z,23.13
2016-03-22T10:23:22.723Z,23.13
2016-03-22T10:24:22.710Z,23.42
2016-03-22T10:25:22.744Z,24.66
2016-03-22T10:26:22.747Z,23.33
2016-03-22T10:27:22.624Z,23.52
2016-03-22T10:28:22.784Z,24.28
2016-03-22T10:29:22.818Z,24.76
2016-03-22T10:30:22.835Z,25.14
2016-03-22T10:31:22.854Z,24.38
2016-03-22T10:32:22.888Z,24.57
2016-03-22T10:33:22.890Z,24.19
2016-03-22T10:34:22.909Z,24.49
2016-03-22T10:35:22.928Z,23.62
2016-03-22T10:36:22.946Z,23.44
2016-03-22T10:37:22.964Z,23.53
2016-03-22T10:38:22.998Z,22.97
2016-03-22T10:39:23.001Z,22.97
2016-03-22T10:40:23.019Z,22.3
2016-03-22T10:41:23.036Z,23.35
2016-03-22T10:42:23.055Z,22.4
2016-03-22T10:43:23.074Z,20.78
2016-03-22T10:44:23.092Z,20.31
2016-03-22T10:45:23.126Z,19.73
2016-03-22T10:46:23.144Z,18.59
2016-03-22T10:47:23.163Z,18.87
2016-03-22T10:48:23.197Z,18.58
2016-03-22T10:49:23.200Z,19.64
2016-03-22T10:50:23.218Z,20.02
2016-03-22T10:51:23.235Z,18.58
2016-03-22T10:52:23.254Z,18.39
2016-03-22T10:53:23.288Z,17.72
2016-03-22T10:54:23.307Z,18.77
2016-03-22T10:55:23.325Z,18.39
2016-03-22T10:56:23.343Z,19.73
2016-03-22T10:57:23.377Z,19.92
2016-03-22T10:58:23.379Z,20.78
2016-03-22T10:59:23.446Z,19.25
2016-03-22T11:00:23.432Z,19.15
2016-03-22T11:01:23.450Z,21.15
2016-03-22T11:02:23.469Z,22.4
2016-03-22T11:03:23.501Z,22.4
2016-03-22T11:04:23.498Z,23.16
2016-03-22T11:05:23.525Z,23.46
2016-03-22T11:06:23.521Z,24.02
2016-03-22T11:07:23.534Z,23.73
2016-03-22T11:08:23.563Z,23.27
2016-03-22T11:09:23.578Z,23.83
2016-03-22T11:10:23.595Z,23.44
2016-03-22T11:11:23.611Z,23.63
2016-03-22T11:12:23.643Z,24.02
2016-03-22T11:13:23.643Z,24.5
2016-03-22T11:14:23.661Z,23.91
2016-03-22T11:15:23.679Z,24.49
2016-03-22T11:16:23.711Z,25.06
2016-03-22T11:17:23.713Z,25.06
2016-03-22T11:18:23.748Z,25.35
2016-03-22T11:19:23.764Z,25.15
2016-03-22T11:20:23.766Z,24.87
2016-03-22T11:21:23.800Z,25.73
2016-03-22T11:22:23.802Z,25.44
2016-03-22T11:23:23.837Z,25.92
2016-03-22T11:24:23.855Z,25.33
2016-03-22T11:25:23.857Z,25.9
2016-03-22T11:26:23.892Z,26.1
2016-03-22T11:27:23.910Z,25.62
2016-03-22T11:28:23.928Z,26.67
2016-03-22T11:29:23.946Z,26.19
2016-03-22T11:30:23.964Z,27.05
2016-03-22T11:31:23.984Z,26.57
2016-03-22T11:32:24.001Z,25.33
2016-03-22T11:33:24.020Z,25.9
2016-03-22T11:34:24.038Z,26.86
2016-03-22T11:35:24.056Z,26.19
2016-03-22T11:36:24.075Z,25.9
2016-03-22T11:37:24.109Z,25.9
2016-03-22T11:38:24.127Z,25.52
2016-03-22T11:39:24.129Z,26.39
2016-03-22T11:40:24.148Z,26.09
2016-03-22T11:41:24.166Z,26.56
2016-03-22T11:42:24.200Z,25.7
2016-03-22T11:43:24.219Z,25.6
2016-03-22T11:44:24.221Z,25.99
2016-03-22T11:45:24.239Z,25.51
2016-03-22T11:46:24.274Z,26.46
2016-03-22T11:47:24.276Z,26.95
2016-03-22T11:48:24.310Z,27.71
2016-03-22T11:49:24.312Z,27.23
2016-03-22T11:50:24.332Z,26.75
2016-03-22T11:51:24.349Z,27.52
2016-03-22T11:52:24.368Z,26.37
2016-03-22T11:53:24.385Z,27.33
2016-03-22T11:54:24.263Z,28.55
2016-03-22T11:55:24.423Z,29.03
2016-03-22T11:56:24.426Z,29.22
2016-03-22T11:57:24.490Z,29.32
2016-03-22T11:58:24.493Z,30.18
2016-03-22T11:59:24.496Z,30.08
2016-03-22T12:00:24.514Z,29.61
2016-03-22T12:01:24.532Z,30.08
2016-03-22T12:02:24.551Z,29.13
2016-03-22T12:03:24.569Z,28.65
2016-03-22T12:04:24.572Z,29.22
2016-03-22T12:05:24.590Z,28.55
2016-03-22T12:06:24.608Z,28.75
2016-03-22T12:07:24.658Z,29.99
2016-03-22T12:08:24.660Z,29.61
2016-03-22T12:09:24.664Z,29.7
2016-03-22T12:10:24.681Z,29.03
2016-03-22T12:11:24.700Z,29.8
2016-03-22T12:12:24.719Z,29.22
2016-03-22T12:13:24.752Z,29.03
2016-03-22T12:14:24.755Z,28.84
2016-03-22T12:15:24.789Z,29.13
2016-03-22T12:16:24.807Z,29.8
2016-03-22T12:17:24.810Z,29.22
2016-03-22T12:18:24.843Z,28.84
2016-03-22T12:19:24.863Z,28.17
2016-03-22T12:20:24.865Z,29.03
2016-03-22T12:21:24.883Z,29.4
2016-03-22T12:22:24.902Z,30.07
2016-03-22T12:23:24.951Z,29.11
2016-03-22T12:24:24.938Z,29.3
2016-03-22T12:25:24.957Z,29.3
2016-03-22T12:26:24.834Z,29.21
2016-03-22T12:27:24.976Z,29.97
2016-03-22T12:28:25.011Z,30.74
2016-03-22T12:29:25.029Z,29.4
2016-03-22T12:30:25.048Z,29.21
2016-03-22T12:31:25.067Z,29.69
2016-03-22T12:32:25.069Z,29.88
2016-03-22T12:33:25.103Z,31.02
2016-03-22T12:34:25.105Z,31.12
2016-03-22T12:35:25.124Z,30.26
2016-03-22T12:36:25.142Z,30.55
2016-03-22T12:37:25.160Z,31.02
2016-03-22T12:38:25.195Z,30.16
2016-03-22T12:39:25.197Z,29.78
2016-03-22T12:40:25.216Z,30.55
2016-03-22T12:41:25.234Z,29.97
2016-03-22T12:42:25.236Z,30.64
2016-03-22T12:43:25.270Z,29.97
2016-03-22T12:44:25.351Z,29.21
2016-03-22T12:45:25.308Z,29.78
2016-03-22T12:46:25.310Z,28.54
2016-03-22T12:47:25.328Z,28.54
2016-03-22T12:48:25.347Z,28.83
2016-03-22T12:49:25.365Z,28.35
2016-03-22T12:50:25.383Z,27.78
2016-03-22T12:51:25.402Z,27.78
2016-03-22T12:52:25.436Z,27.2
2016-03-22T12:53:25.454Z,27.3
2016-03-22T12:54:25.456Z,29.11
2016-03-22T12:55:25.475Z,27.49